sensor_id;sensor_type;location;lat;lon;timestamp;temperature;humidity
12684;DHT22;6406;59.312;18.058;2024-02-23T00:01:52;4.20;99.90
12684;DHT22;6406;59.312;18.058;2024-02-23T00:04:32;3.70;99.90
12684;DHT22;6406;59.312;18.058;2024-02-23T00:07:03;5.70;99.90
12684;DHT22;6406;59.312;18.058;2024-02-23T00:09:46;4.20;99.90
12684;DHT22;6406;59.312;18.058;2024-02-23T00:15:00;4.30;99.90
12684;DHT22;6406;59.312;18.058;2024-02-23T00:17:37;3.40;99.90
12684;DHT22;6406;59.312;18.058;2024-02-23T00:20:26;4.20;99.90
12684;DHT22;6406;59.312;18.058;2024-02-23T00:23:01;4.20;99.90
12684;DHT22;6406;59.312;18.058;2024-02-23T00:25:32;4.20;99.90
12684;DHT22;6406;59.312;18.058;2024-02-23T00:28:03;4.10;99.90
12684;DHT22;6406;59.312;18.058;2024-02-23T00:30:41;4.10;99.90
12684;DHT22;6406;59.312;18.058;2024-02-23T00:33:14;4.20;99.90
12684;DHT22;6406;59.312;18.058;2024-02-23T00:35:45;4.30;99.90
12684;DHT22;6406;59.312;18.058;2024-02-23T00:38:31;3.30;99.90
12684;DHT22;6406;59.312;18.058;2024-02-23T00:44:10;4.20;99.90
12684;DHT22;6406;59.312;18.058;2024-02-23T00:46:44;4.20;99.90
12684;DHT22;6406;59.312;18.058;2024-02-23T00:49:28;4.30;99.90
12684;DHT22;6406;59.312;18.058;2024-02-23T00:52:07;4.30;99.90
12684;DHT22;6406;59.312;18.058;2024-02-23T00:54:56;4.30;99.90
12684;DHT22;6406;59.312;18.058;2024-02-23T00:57:32;4.00;99.90
12684;DHT22;6406;59.312;18.058;2024-02-23T01:00:06;5.30;99.90
12684;DHT22;6406;59.312;18.058;2024-02-23T01:02:44;4.10;99.90
12684;DHT22;6406;59.312;18.058;2024-02-23T01:05:39;1.50;99.90
12684;DHT22;6406;59.312;18.058;2024-02-23T01:08:35;4.50;99.90
12684;DHT22;6406;59.312;18.058;2024-02-23T01:11:48;4.20;99.90
12684;DHT22;6406;59.312;18.058;2024-02-23T01:14:33;3.90;99.90
12684;DHT22;6406;59.312;18.058;2024-02-23T01:17:14;4.20;99.90
12684;DHT22;6406;59.312;18.058;2024-02-23T01:23:20;4.30;99.90
12684;DHT22;6406;59.312;18.058;2024-02-23T01:26:22;5.10;99.90
12684;DHT22;6406;59.312;18.058;2024-02-23T01:28:58;4.30;99.90
12684;DHT22;6406;59.312;18.058;2024-02-23T01:31:40;4.30;99.90
12684;DHT22;6406;59.312;18.058;2024-02-23T01:34:39;4.30;99.90
12684;DHT22;6406;59.312;18.058;2024-02-23T01:37:24;5.40;99.90
12684;DHT22;6406;59.312;18.058;2024-02-23T01:40:00;4.30;99.90
12684;DHT22;6406;59.312;18.058;2024-02-23T01:42:51;4.30;99.90
12684;DHT22;6406;59.312;18.058;2024-02-23T01:45:33;4.20;99.90
12684;DHT22;6406;59.312;18.058;2024-02-23T01:48:17;4.40;99.90
12684;DHT22;6406;59.312;18.058;2024-02-23T01:50:57;4.30;99.90
12684;DHT22;6406;59.312;18.058;2024-02-23T01:53:26;4.70;99.90
12684;DHT22;6406;59.312;18.058;2024-02-23T01:56:14;4.30;99.90
12684;DHT22;6406;59.312;18.058;2024-02-23T01:58:49;4.50;99.90
12684;DHT22;6406;59.312;18.058;2024-02-23T02:01:26;4.30;99.90
12684;DHT22;6406;59.312;18.058;2024-02-23T02:04:07;4.30;99.90
12684;DHT22;6406;59.312;18.058;2024-02-23T02:06:48;4.30;99.90
12684;DHT22;6406;59.312;18.058;2024-02-23T02:09:26;7.40;99.90
12684;DHT22;6406;59.312;18.058;2024-02-23T02:12:01;4.30;99.90
12684;DHT22;6406;59.312;18.058;2024-02-23T02:14:39;6.90;99.90
12684;DHT22;6406;59.312;18.058;2024-02-23T02:17:38;4.40;99.90
12684;DHT22;6406;59.312;18.058;2024-02-23T02:20:13;4.40;99.90
12684;DHT22;6406;59.312;18.058;2024-02-23T02:23:20;4.40;99.90
12684;DHT22;6406;59.312;18.058;2024-02-23T02:26:00;4.40;99.90
12684;DHT22;6406;59.312;18.058;2024-02-23T02:28:34;4.40;99.90
12684;DHT22;6406;59.312;18.058;2024-02-23T02:31:11;4.40;99.90
12684;DHT22;6406;59.312;18.058;2024-02-23T02:33:45;4.00;99.90
12684;DHT22;6406;59.312;18.058;2024-02-23T02:36:29;4.20;99.90
12684;DHT22;6406;59.312;18.058;2024-02-23T02:41:56;4.50;99.90
12684;DHT22;6406;59.312;18.058;2024-02-23T02:44:31;4.50;99.90
12684;DHT22;6406;59.312;18.058;2024-02-23T02:47:13;4.50;99.90
12684;DHT22;6406;59.312;18.058;2024-02-23T02:50:17;4.40;99.90
12684;DHT22;6406;59.312;18.058;2024-02-23T02:53:02;4.50;99.90
12684;DHT22;6406;59.312;18.058;2024-02-23T02:55:46;4.40;99.90
12684;DHT22;6406;59.312;18.058;2024-02-23T02:58:32;4.40;99.90
12684;DHT22;6406;59.312;18.058;2024-02-23T03:01:07;5.10;99.90
12684;DHT22;6406;59.312;18.058;2024-02-23T03:06:26;4.40;99.90
12684;DHT22;6406;59.312;18.058;2024-02-23T03:09:01;4.50;99.90
12684;DHT22;6406;59.312;18.058;2024-02-23T03:11:38;4.50;99.90
12684;DHT22;6406;59.312;18.058;2024-02-23T03:14:09;4.50;99.90
12684;DHT22;6406;59.312;18.058;2024-02-23T03:16:44;4.50;99.90
12684;DHT22;6406;59.312;18.058;2024-02-23T03:19:14;4.50;99.90
12684;DHT22;6406;59.312;18.058;2024-02-23T03:21:44;4.50;99.90
12684;DHT22;6406;59.312;18.058;2024-02-23T03:24:22;4.50;99.90
12684;DHT22;6406;59.312;18.058;2024-02-23T03:27:06;4.40;99.90
12684;DHT22;6406;59.312;18.058;2024-02-23T03:29:34;4.50;99.90
12684;DHT22;6406;59.312;18.058;2024-02-23T03:32:10;4.50;99.90
12684;DHT22;6406;59.312;18.058;2024-02-23T03:34:54;4.50;99.90
12684;DHT22;6406;59.312;18.058;2024-02-23T03:37:38;8.50;99.90
12684;DHT22;6406;59.312;18.058;2024-02-23T03:40:13;4.50;99.90
12684;DHT22;6406;59.312;18.058;2024-02-23T03:42:54;4.40;99.90
12684;DHT22;6406;59.312;18.058;2024-02-23T03:45:26;4.60;99.90
12684;DHT22;6406;59.312;18.058;2024-02-23T03:47:55;4.50;99.90
12684;DHT22;6406;59.312;18.058;2024-02-23T03:50:26;4.60;99.90
12684;DHT22;6406;59.312;18.058;2024-02-23T03:52:56;2.40;99.90
12684;DHT22;6406;59.312;18.058;2024-02-23T03:58:08;4.50;99.90
12684;DHT22;6406;59.312;18.058;2024-02-23T04:00:45;4.60;99.90
12684;DHT22;6406;59.312;18.058;2024-02-23T04:03:26;4.50;99.90
12684;DHT22;6406;59.312;18.058;2024-02-23T04:06:17;4.60;99.90
12684;DHT22;6406;59.312;18.058;2024-02-23T04:08:45;5.10;99.90
12684;DHT22;6406;59.312;18.058;2024-02-23T04:11:18;4.60;99.90
12684;DHT22;6406;59.312;18.058;2024-02-23T04:13:49;4.60;99.90
12684;DHT22;6406;59.312;18.058;2024-02-23T04:16:28;4.80;99.90
12684;DHT22;6406;59.312;18.058;2024-02-23T04:18:59;4.80;99.90
12684;DHT22;6406;59.312;18.058;2024-02-23T04:21:31;4.60;99.90
12684;DHT22;6406;59.312;18.058;2024-02-23T04:23:59;4.60;99.90
12684;DHT22;6406;59.312;18.058;2024-02-23T04:26:30;4.30;99.90
12684;DHT22;6406;59.312;18.058;2024-02-23T04:29:06;4.70;99.90
12684;DHT22;6406;59.312;18.058;2024-02-23T04:31:37;4.60;99.90
12684;DHT22;6406;59.312;18.058;2024-02-23T04:34:19;4.60;99.90
12684;DHT22;6406;59.312;18.058;2024-02-23T04:36:47;4.70;99.90
12684;DHT22;6406;59.312;18.058;2024-02-23T04:39:19;4.70;99.90
12684;DHT22;6406;59.312;18.058;2024-02-23T04:41:59;4.60;99.90
12684;DHT22;6406;59.312;18.058;2024-02-23T04:44:30;4.20;99.90
12684;DHT22;6406;59.312;18.058;2024-02-23T04:47:07;4.70;99.90
12684;DHT22;6406;59.312;18.058;2024-02-23T04:49:58;4.60;99.90
12684;DHT22;6406;59.312;18.058;2024-02-23T04:52:39;4.20;99.90
12684;DHT22;6406;59.312;18.058;2024-02-23T04:55:09;4.40;99.90
12684;DHT22;6406;59.312;18.058;2024-02-23T04:58:01;4.70;99.90
12684;DHT22;6406;59.312;18.058;2024-02-23T05:00:42;4.70;99.90
12684;DHT22;6406;59.312;18.058;2024-02-23T05:03:14;4.60;99.90
12684;DHT22;6406;59.312;18.058;2024-02-23T05:06:00;4.60;99.90
12684;DHT22;6406;59.312;18.058;2024-02-23T05:08:32;4.60;99.90
12684;DHT22;6406;59.312;18.058;2024-02-23T05:11:00;4.70;99.90
12684;DHT22;6406;59.312;18.058;2024-02-23T05:13:34;4.70;99.90
12684;DHT22;6406;59.312;18.058;2024-02-23T05:16:06;4.70;99.90
12684;DHT22;6406;59.312;18.058;2024-02-23T05:18:34;4.70;99.90
12684;DHT22;6406;59.312;18.058;2024-02-23T05:21:16;4.30;99.90
12684;DHT22;6406;59.312;18.058;2024-02-23T05:23:44;4.70;99.90
12684;DHT22;6406;59.312;18.058;2024-02-23T05:26:15;4.70;99.90
12684;DHT22;6406;59.312;18.058;2024-02-23T05:28:47;4.70;99.90
12684;DHT22;6406;59.312;18.058;2024-02-23T05:31:15;4.70;99.90
12684;DHT22;6406;59.312;18.058;2024-02-23T05:33:58;4.70;99.90
12684;DHT22;6406;59.312;18.058;2024-02-23T05:36:46;4.60;99.90
12684;DHT22;6406;59.312;18.058;2024-02-23T05:39:18;4.70;99.90
12684;DHT22;6406;59.312;18.058;2024-02-23T05:41:47;4.70;99.90
12684;DHT22;6406;59.312;18.058;2024-02-23T05:44:17;4.60;99.90
12684;DHT22;6406;59.312;18.058;2024-02-23T05:47:02;4.70;99.90
12684;DHT22;6406;59.312;18.058;2024-02-23T05:49:53;4.70;99.90
12684;DHT22;6406;59.312;18.058;2024-02-23T05:52:40;4.90;99.90
12684;DHT22;6406;59.312;18.058;2024-02-23T05:55:33;4.60;99.90
12684;DHT22;6406;59.312;18.058;2024-02-23T05:58:03;4.70;99.90
12684;DHT22;6406;59.312;18.058;2024-02-23T06:00:38;4.70;99.90
12684;DHT22;6406;59.312;18.058;2024-02-23T06:03:32;4.70;99.90
12684;DHT22;6406;59.312;18.058;2024-02-23T06:06:19;4.70;99.90
12684;DHT22;6406;59.312;18.058;2024-02-23T06:09:29;4.70;99.90
12684;DHT22;6406;59.312;18.058;2024-02-23T06:20:22;4.80;99.90
12684;DHT22;6406;59.312;18.058;2024-02-23T06:22:50;4.80;99.90
12684;DHT22;6406;59.312;18.058;2024-02-23T06:25:35;6.20;99.90
12684;DHT22;6406;59.312;18.058;2024-02-23T06:28:07;4.40;99.90
12684;DHT22;6406;59.312;18.058;2024-02-23T06:30:35;3.90;99.90
12684;DHT22;6406;59.312;18.058;2024-02-23T06:33:07;4.80;99.90
12684;DHT22;6406;59.312;18.058;2024-02-23T06:35:37;4.60;99.90
12684;DHT22;6406;59.312;18.058;2024-02-23T06:38:09;4.90;99.90
12684;DHT22;6406;59.312;18.058;2024-02-23T06:40:41;4.80;99.90
12684;DHT22;6406;59.312;18.058;2024-02-23T06:43:10;4.80;99.90
12684;DHT22;6406;59.312;18.058;2024-02-23T06:45:43;4.70;99.90
12684;DHT22;6406;59.312;18.058;2024-02-23T06:48:14;4.80;99.90
12684;DHT22;6406;59.312;18.058;2024-02-23T06:50:43;4.90;99.90
12684;DHT22;6406;59.312;18.058;2024-02-23T06:53:11;4.90;99.90
12684;DHT22;6406;59.312;18.058;2024-02-23T06:55:48;4.90;99.90
12684;DHT22;6406;59.312;18.058;2024-02-23T06:58:16;4.90;99.90
12684;DHT22;6406;59.312;18.058;2024-02-23T07:00:44;4.90;99.90
12684;DHT22;6406;59.312;18.058;2024-02-23T07:03:12;4.80;99.90
12684;DHT22;6406;59.312;18.058;2024-02-23T07:05:45;4.90;99.90
12684;DHT22;6406;59.312;18.058;2024-02-23T07:08:16;4.90;99.90
12684;DHT22;6406;59.312;18.058;2024-02-23T07:10:45;4.90;99.90
12684;DHT22;6406;59.312;18.058;2024-02-23T07:13:14;6.30;99.90
12684;DHT22;6406;59.312;18.058;2024-02-23T07:15:45;5.00;99.90
12684;DHT22;6406;59.312;18.058;2024-02-23T07:18:13;5.00;99.90
12684;DHT22;6406;59.312;18.058;2024-02-23T07:20:42;5.10;99.90
12684;DHT22;6406;59.312;18.058;2024-02-23T07:23:11;5.00;99.90
12684;DHT22;6406;59.312;18.058;2024-02-23T07:25:42;7.10;99.90
12684;DHT22;6406;59.312;18.058;2024-02-23T07:28:11;5.10;99.90
12684;DHT22;6406;59.312;18.058;2024-02-23T07:30:40;4.90;99.90
12684;DHT22;6406;59.312;18.058;2024-02-23T07:33:10;5.20;99.90
12684;DHT22;6406;59.312;18.058;2024-02-23T07:35:38;5.10;99.90
12684;DHT22;6406;59.312;18.058;2024-02-23T07:38:11;5.10;99.90
12684;DHT22;6406;59.312;18.058;2024-02-23T07:40:40;5.10;99.90
12684;DHT22;6406;59.312;18.058;2024-02-23T07:43:08;3.50;99.90
12684;DHT22;6406;59.312;18.058;2024-02-23T07:45:38;5.70;99.90
12684;DHT22;6406;59.312;18.058;2024-02-23T07:48:05;5.10;99.90
12684;DHT22;6406;59.312;18.058;2024-02-23T07:53:23;4.90;99.90
12684;DHT22;6406;59.312;18.058;2024-02-23T07:55:51;6.10;99.90
12684;DHT22;6406;59.312;18.058;2024-02-23T07:58:18;4.50;99.90
12684;DHT22;6406;59.312;18.058;2024-02-23T08:00:51;5.10;99.90
12684;DHT22;6406;59.312;18.058;2024-02-23T08:03:19;5.10;99.90
12684;DHT22;6406;59.312;18.058;2024-02-23T08:05:46;8.20;99.90
12684;DHT22;6406;59.312;18.058;2024-02-23T08:08:44;5.00;99.90
12684;DHT22;6406;59.312;18.058;2024-02-23T08:11:26;5.00;99.90
12684;DHT22;6406;59.312;18.058;2024-02-23T08:14:21;5.20;99.90
12684;DHT22;6406;59.312;18.058;2024-02-23T08:17:02;5.10;99.90
12684;DHT22;6406;59.312;18.058;2024-02-23T08:19:40;5.00;99.90
12684;DHT22;6406;59.312;18.058;2024-02-23T08:22:09;4.90;99.90
12684;DHT22;6406;59.312;18.058;2024-02-23T08:24:43;5.10;99.90
12684;DHT22;6406;59.312;18.058;2024-02-23T08:27:13;5.10;99.90
12684;DHT22;6406;59.312;18.058;2024-02-23T08:29:43;5.20;99.90
12684;DHT22;6406;59.312;18.058;2024-02-23T08:32:13;5.30;99.90
12684;DHT22;6406;59.312;18.058;2024-02-23T08:34:43;5.20;99.90
12684;DHT22;6406;59.312;18.058;2024-02-23T08:37:11;5.20;99.90
12684;DHT22;6406;59.312;18.058;2024-02-23T08:39:49;5.30;99.90
12684;DHT22;6406;59.312;18.058;2024-02-23T08:42:23;5.60;99.90
12684;DHT22;6406;59.312;18.058;2024-02-23T08:44:53;5.90;99.90
12684;DHT22;6406;59.312;18.058;2024-02-23T08:47:22;5.30;99.90
12684;DHT22;6406;59.312;18.058;2024-02-23T08:49:53;5.30;99.90
12684;DHT22;6406;59.312;18.058;2024-02-23T08:52:21;5.50;99.90
12684;DHT22;6406;59.312;18.058;2024-02-23T08:54:49;5.60;99.90
12684;DHT22;6406;59.312;18.058;2024-02-23T08:57:30;6.00;99.90
12684;DHT22;6406;59.312;18.058;2024-02-23T08:59:59;5.00;99.90
12684;DHT22;6406;59.312;18.058;2024-02-23T09:02:28;5.60;99.90
12684;DHT22;6406;59.312;18.058;2024-02-23T09:04:55;5.90;99.90
12684;DHT22;6406;59.312;18.058;2024-02-23T09:07:22;5.60;99.90
12684;DHT22;6406;59.312;18.058;2024-02-23T09:09:50;6.00;99.90
12684;DHT22;6406;59.312;18.058;2024-02-23T09:12:18;5.20;99.90
12684;DHT22;6406;59.312;18.058;2024-02-23T09:14:46;5.70;99.90
12684;DHT22;6406;59.312;18.058;2024-02-23T09:17:13;7.50;99.90
12684;DHT22;6406;59.312;18.058;2024-02-23T09:19:50;5.50;99.90
12684;DHT22;6406;59.312;18.058;2024-02-23T09:22:22;5.70;99.90
12684;DHT22;6406;59.312;18.058;2024-02-23T09:24:52;5.80;99.90
12684;DHT22;6406;59.312;18.058;2024-02-23T09:27:21;5.80;99.90
12684;DHT22;6406;59.312;18.058;2024-02-23T09:29:53;5.70;99.90
12684;DHT22;6406;59.312;18.058;2024-02-23T09:32:45;5.70;99.90
12684;DHT22;6406;59.312;18.058;2024-02-23T09:35:37;5.70;99.90
12684;DHT22;6406;59.312;18.058;2024-02-23T09:38:08;5.60;99.90
12684;DHT22;6406;59.312;18.058;2024-02-23T09:40:35;5.70;99.90
12684;DHT22;6406;59.312;18.058;2024-02-23T09:43:06;5.70;99.90
12684;DHT22;6406;59.312;18.058;2024-02-23T09:45:38;5.50;99.90
12684;DHT22;6406;59.312;18.058;2024-02-23T09:48:06;6.20;99.90
12684;DHT22;6406;59.312;18.058;2024-02-23T09:50:41;5.80;99.90
12684;DHT22;6406;59.312;18.058;2024-02-23T09:53:13;6.00;99.90
12684;DHT22;6406;59.312;18.058;2024-02-23T09:55:44;6.10;99.90
12684;DHT22;6406;59.312;18.058;2024-02-23T09:58:17;6.20;99.90
12684;DHT22;6406;59.312;18.058;2024-02-23T10:01:25;6.30;99.90
12684;DHT22;6406;59.312;18.058;2024-02-23T10:03:59;8.00;99.90
12684;DHT22;6406;59.312;18.058;2024-02-23T10:06:28;6.40;99.90
12684;DHT22;6406;59.312;18.058;2024-02-23T10:08:55;6.50;99.90
12684;DHT22;6406;59.312;18.058;2024-02-23T10:11:24;6.80;99.90
12684;DHT22;6406;59.312;18.058;2024-02-23T10:13:51;6.70;99.90
12684;DHT22;6406;59.312;18.058;2024-02-23T10:16:20;6.80;99.90
12684;DHT22;6406;59.312;18.058;2024-02-23T10:18:48;7.00;99.90
12684;DHT22;6406;59.312;18.058;2024-02-23T10:21:28;5.40;99.90
12684;DHT22;6406;59.312;18.058;2024-02-23T10:23:56;7.60;99.90
12684;DHT22;6406;59.312;18.058;2024-02-23T10:26:28;7.60;1.00
12684;DHT22;6406;59.312;18.058;2024-02-23T10:28:58;7.50;1.00
12684;DHT22;6406;59.312;18.058;2024-02-23T10:31:42;7.30;1.00
12684;DHT22;6406;59.312;18.058;2024-02-23T10:34:30;6.20;16.40
12684;DHT22;6406;59.312;18.058;2024-02-23T10:37:02;8.50;1.00
12684;DHT22;6406;59.312;18.058;2024-02-23T10:39:45;8.80;1.00
12684;DHT22;6406;59.312;18.058;2024-02-23T10:42:13;9.50;1.00
12684;DHT22;6406;59.312;18.058;2024-02-23T10:44:43;9.90;1.00
12684;DHT22;6406;59.312;18.058;2024-02-23T10:47:09;10.30;1.00
12684;DHT22;6406;59.312;18.058;2024-02-23T10:49:47;10.50;1.00
12684;DHT22;6406;59.312;18.058;2024-02-23T10:52:17;10.70;1.00
12684;DHT22;6406;59.312;18.058;2024-02-23T10:55:02;10.60;1.00
12684;DHT22;6406;59.312;18.058;2024-02-23T10:57:54;12.80;1.00
12684;DHT22;6406;59.312;18.058;2024-02-23T11:00:25;8.20;1.00
12684;DHT22;6406;59.312;18.058;2024-02-23T11:06:23;10.10;1.00
12684;DHT22;6406;59.312;18.058;2024-02-23T11:15:28;11.90;1.00
12684;DHT22;6406;59.312;18.058;2024-02-23T11:18:01;10.70;1.00
12684;DHT22;6406;59.312;18.058;2024-02-23T11:20:42;10.70;1.00
12684;DHT22;6406;59.312;18.058;2024-02-23T11:23:22;12.00;1.00
12684;DHT22;6406;59.312;18.058;2024-02-23T11:41:41;10.80;1.00
12684;DHT22;6406;59.312;18.058;2024-02-23T11:48:15;10.90;1.00
12684;DHT22;6406;59.312;18.058;2024-02-23T11:54:47;11.00;1.00
12684;DHT22;6406;59.312;18.058;2024-02-23T11:57:29;10.50;1.00
12684;DHT22;6406;59.312;18.058;2024-02-23T12:00:15;10.80;1.00
12684;DHT22;6406;59.312;18.058;2024-02-23T12:02:52;10.90;1.00
12684;DHT22;6406;59.312;18.058;2024-02-23T12:06:07;14.00;1.00
12684;DHT22;6406;59.312;18.058;2024-02-23T12:08:40;10.70;1.00
12684;DHT22;6406;59.312;18.058;2024-02-23T12:11:13;10.20;1.00
12684;DHT22;6406;59.312;18.058;2024-02-23T12:13:49;10.60;1.00
12684;DHT22;6406;59.312;18.058;2024-02-23T12:16:26;10.30;1.00
12684;DHT22;6406;59.312;18.058;2024-02-23T12:19:08;10.20;1.00
12684;DHT22;6406;59.312;18.058;2024-02-23T12:21:45;8.80;1.00
12684;DHT22;6406;59.312;18.058;2024-02-23T12:24:20;9.90;1.00
12684;DHT22;6406;59.312;18.058;2024-02-23T12:26:53;9.60;1.00
12684;DHT22;6406;59.312;18.058;2024-02-23T12:29:22;8.60;1.00
12684;DHT22;6406;59.312;18.058;2024-02-23T12:32:02;10.10;1.00
12684;DHT22;6406;59.312;18.058;2024-02-23T12:34:55;9.20;1.00
12684;DHT22;6406;59.312;18.058;2024-02-23T12:37:43;9.80;1.00
12684;DHT22;6406;59.312;18.058;2024-02-23T12:40:35;10.10;1.00
12684;DHT22;6406;59.312;18.058;2024-02-23T12:43:06;9.80;1.00
12684;DHT22;6406;59.312;18.058;2024-02-23T12:45:47;9.80;1.00
12684;DHT22;6406;59.312;18.058;2024-02-23T12:48:16;8.60;1.00
12684;DHT22;6406;59.312;18.058;2024-02-23T12:50:50;10.30;1.00
12684;DHT22;6406;59.312;18.058;2024-02-23T12:53:31;11.30;1.00
12684;DHT22;6406;59.312;18.058;2024-02-23T12:59:20;10.30;99.90
12684;DHT22;6406;59.312;18.058;2024-02-23T13:01:51;10.60;99.90
12684;DHT22;6406;59.312;18.058;2024-02-23T13:04:56;10.40;99.90
12684;DHT22;6406;59.312;18.058;2024-02-23T13:07:47;7.60;99.90
12684;DHT22;6406;59.312;18.058;2024-02-23T13:10:18;8.90;99.90
12684;DHT22;6406;59.312;18.058;2024-02-23T13:12:54;9.50;1.00
12684;DHT22;6406;59.312;18.058;2024-02-23T13:15:24;9.20;1.00
12684;DHT22;6406;59.312;18.058;2024-02-23T13:17:51;8.90;1.00
12684;DHT22;6406;59.312;18.058;2024-02-23T13:20:22;8.70;1.00
12684;DHT22;6406;59.312;18.058;2024-02-23T13:22:50;8.70;1.00
12684;DHT22;6406;59.312;18.058;2024-02-23T13:25:36;8.60;1.00
12684;DHT22;6406;59.312;18.058;2024-02-23T13:28:05;8.50;1.00
12684;DHT22;6406;59.312;18.058;2024-02-23T13:30:37;8.40;1.00
12684;DHT22;6406;59.312;18.058;2024-02-23T13:33:08;8.30;1.00
12684;DHT22;6406;59.312;18.058;2024-02-23T13:35:37;8.20;1.00
12684;DHT22;6406;59.312;18.058;2024-02-23T13:38:05;8.10;1.00
12684;DHT22;6406;59.312;18.058;2024-02-23T13:40:47;8.30;1.00
12684;DHT22;6406;59.312;18.058;2024-02-23T13:43:41;8.00;1.00
12684;DHT22;6406;59.312;18.058;2024-02-23T13:46:18;9.20;1.00
12684;DHT22;6406;59.312;18.058;2024-02-23T13:49:01;7.90;1.00
12684;DHT22;6406;59.312;18.058;2024-02-23T13:51:37;7.80;1.00
12684;DHT22;6406;59.312;18.058;2024-02-23T13:54:05;8.00;1.00
12684;DHT22;6406;59.312;18.058;2024-02-23T13:56:55;8.80;1.00
12684;DHT22;6406;59.312;18.058;2024-02-23T13:59:54;7.20;1.00
12684;DHT22;6406;59.312;18.058;2024-02-23T14:02:26;7.70;1.00
12684;DHT22;6406;59.312;18.058;2024-02-23T14:05:01;7.80;1.00
12684;DHT22;6406;59.312;18.058;2024-02-23T14:07:31;7.80;1.00
12684;DHT22;6406;59.312;18.058;2024-02-23T14:10:06;7.80;1.00
12684;DHT22;6406;59.312;18.058;2024-02-23T14:12:34;7.70;1.00
12684;DHT22;6406;59.312;18.058;2024-02-23T14:15:02;7.70;1.00
12684;DHT22;6406;59.312;18.058;2024-02-23T14:17:43;7.70;1.00
12684;DHT22;6406;59.312;18.058;2024-02-23T14:20:14;7.40;1.00
12684;DHT22;6406;59.312;18.058;2024-02-23T14:22:45;7.60;1.00
12684;DHT22;6406;59.312;18.058;2024-02-23T14:25:34;4.70;1.00
12684;DHT22;6406;59.312;18.058;2024-02-23T14:28:09;7.60;1.00
12684;DHT22;6406;59.312;18.058;2024-02-23T14:30:50;7.70;1.00
12684;DHT22;6406;59.312;18.058;2024-02-23T14:33:31;7.60;1.00
12684;DHT22;6406;59.312;18.058;2024-02-23T14:38:50;7.50;1.00
12684;DHT22;6406;59.312;18.058;2024-02-23T14:41:22;7.50;1.00
12684;DHT22;6406;59.312;18.058;2024-02-23T14:43:53;7.40;1.00
12684;DHT22;6406;59.312;18.058;2024-02-23T14:46:33;7.30;1.00
12684;DHT22;6406;59.312;18.058;2024-02-23T14:49:07;8.30;1.00
12684;DHT22;6406;59.312;18.058;2024-02-23T14:51:45;7.40;1.00
12684;DHT22;6406;59.312;18.058;2024-02-23T14:54:19;7.20;1.00
12684;DHT22;6406;59.312;18.058;2024-02-23T14:56:59;8.20;1.00
12684;DHT22;6406;59.312;18.058;2024-02-23T14:59:29;9.70;1.00
12684;DHT22;6406;59.312;18.058;2024-02-23T15:02:04;7.40;1.00
12684;DHT22;6406;59.312;18.058;2024-02-23T15:04:47;7.20;1.00
12684;DHT22;6406;59.312;18.058;2024-02-23T15:07:29;7.40;1.00
12684;DHT22;6406;59.312;18.058;2024-02-23T15:10:01;7.20;1.00
12684;DHT22;6406;59.312;18.058;2024-02-23T15:12:33;7.40;1.00
12684;DHT22;6406;59.312;18.058;2024-02-23T15:15:08;7.10;1.00
12684;DHT22;6406;59.312;18.058;2024-02-23T15:17:36;7.10;1.00
12684;DHT22;6406;59.312;18.058;2024-02-23T15:20:07;7.00;1.00
12684;DHT22;6406;59.312;18.058;2024-02-23T15:22:46;7.10;1.00
12684;DHT22;6406;59.312;18.058;2024-02-23T15:25:17;6.90;1.00
12684;DHT22;6406;59.312;18.058;2024-02-23T15:27:47;6.80;1.00
12684;DHT22;6406;59.312;18.058;2024-02-23T15:32:52;6.50;1.00
12684;DHT22;6406;59.312;18.058;2024-02-23T15:35:28;6.60;1.00
12684;DHT22;6406;59.312;18.058;2024-02-23T15:38:05;6.60;1.00
12684;DHT22;6406;59.312;18.058;2024-02-23T15:40:58;6.60;1.00
12684;DHT22;6406;59.312;18.058;2024-02-23T15:43:37;6.50;1.00
12684;DHT22;6406;59.312;18.058;2024-02-23T15:46:37;6.40;1.00
12684;DHT22;6406;59.312;18.058;2024-02-23T15:56:40;3.50;1.00
12684;DHT22;6406;59.312;18.058;2024-02-23T15:59:33;7.30;1.00
12684;DHT22;6406;59.312;18.058;2024-02-23T16:04:44;6.30;1.00
12684;DHT22;6406;59.312;18.058;2024-02-23T16:07:42;6.20;1.00
12684;DHT22;6406;59.312;18.058;2024-02-23T16:10:38;6.10;1.00
12684;DHT22;6406;59.312;18.058;2024-02-23T16:13:23;6.20;1.00
12684;DHT22;6406;59.312;18.058;2024-02-23T16:16:08;6.10;1.00
12684;DHT22;6406;59.312;18.058;2024-02-23T16:18:44;6.10;1.00
12684;DHT22;6406;59.312;18.058;2024-02-23T16:21:24;7.50;1.00
12684;DHT22;6406;59.312;18.058;2024-02-23T16:24:03;5.90;1.00
12684;DHT22;6406;59.312;18.058;2024-02-23T16:28:07;5.90;1.00
12684;DHT22;6406;59.312;18.058;2024-02-23T16:34:54;5.90;1.00
12684;DHT22;6406;59.312;18.058;2024-02-23T16:37:35;7.10;1.00
12684;DHT22;6406;59.312;18.058;2024-02-23T16:43:18;5.50;1.00
12684;DHT22;6406;59.312;18.058;2024-02-23T16:45:52;5.70;1.00
12684;DHT22;6406;59.312;18.058;2024-02-23T16:49:11;5.60;1.00
12684;DHT22;6406;59.312;18.058;2024-02-23T16:51:42;5.50;1.00
12684;DHT22;6406;59.312;18.058;2024-02-23T16:54:14;5.50;1.00
12684;DHT22;6406;59.312;18.058;2024-02-23T16:57:02;5.30;1.00
12684;DHT22;6406;59.312;18.058;2024-02-23T16:59:47;6.10;1.00
12684;DHT22;6406;59.312;18.058;2024-02-23T17:02:45;5.50;1.00
12684;DHT22;6406;59.312;18.058;2024-02-23T17:05:31;5.40;1.00
12684;DHT22;6406;59.312;18.058;2024-02-23T17:08:17;6.30;1.00
12684;DHT22;6406;59.312;18.058;2024-02-23T17:11:04;5.10;1.00
12684;DHT22;6406;59.312;18.058;2024-02-23T17:13:34;2.40;1.00
12684;DHT22;6406;59.312;18.058;2024-02-23T17:16:33;5.30;1.00
12684;DHT22;6406;59.312;18.058;2024-02-23T17:19:17;5.10;1.00
12684;DHT22;6406;59.312;18.058;2024-02-23T17:22:03;5.20;1.00
12684;DHT22;6406;59.312;18.058;2024-02-23T17:24:53;5.10;1.00
12684;DHT22;6406;59.312;18.058;2024-02-23T17:27:38;5.10;1.00
12684;DHT22;6406;59.312;18.058;2024-02-23T17:30:25;5.60;1.00
12684;DHT22;6406;59.312;18.058;2024-02-23T17:35:47;5.20;1.00
12684;DHT22;6406;59.312;18.058;2024-02-23T17:38:29;5.10;1.00
12684;DHT22;6406;59.312;18.058;2024-02-23T17:41:00;6.80;1.00
12684;DHT22;6406;59.312;18.058;2024-02-23T17:43:27;5.00;1.00
12684;DHT22;6406;59.312;18.058;2024-02-23T17:45:55;5.00;1.00
12684;DHT22;6406;59.312;18.058;2024-02-23T17:48:30;4.70;1.00
12684;DHT22;6406;59.312;18.058;2024-02-23T17:51:34;5.50;1.00
12684;DHT22;6406;59.312;18.058;2024-02-23T17:54:16;4.80;1.00
12684;DHT22;6406;59.312;18.058;2024-02-23T17:57:38;4.80;1.00
12684;DHT22;6406;59.312;18.058;2024-02-23T18:00:18;5.30;1.00
12684;DHT22;6406;59.312;18.058;2024-02-23T18:03:40;4.70;1.00
12684;DHT22;6406;59.312;18.058;2024-02-23T18:16:38;5.00;1.00
12684;DHT22;6406;59.312;18.058;2024-02-23T18:19:25;4.80;1.00
12684;DHT22;6406;59.312;18.058;2024-02-23T18:22:34;4.80;1.00
12684;DHT22;6406;59.312;18.058;2024-02-23T18:25:37;7.90;1.00
12684;DHT22;6406;59.312;18.058;2024-02-23T18:28:40;6.40;1.00
12684;DHT22;6406;59.312;18.058;2024-02-23T18:31:40;4.70;1.00
12684;DHT22;6406;59.312;18.058;2024-02-23T18:34:44;4.70;1.00
12684;DHT22;6406;59.312;18.058;2024-02-23T18:37:30;4.60;1.00
12684;DHT22;6406;59.312;18.058;2024-02-23T18:42:52;4.70;1.00